sensor_id;sensor_type;location;lat;lon;timestamp;P1;durP1;ratioP1;P2;durP2;ratioP2
35693;SDS011;21812;55.536;37.664;2023-05-10T00:00:13;17.55;;;8.23;;
35693;SDS011;21812;55.536;37.664;2023-05-10T00:02:39;15.80;;;8.95;;
35693;SDS011;21812;55.536;37.664;2023-05-10T00:05:05;29.75;;;10.27;;
35693;SDS011;21812;55.536;37.664;2023-05-10T00:07:32;17.67;;;8.65;;
35693;SDS011;21812;55.536;37.664;2023-05-10T00:09:57;22.00;;;9.88;;
35693;SDS011;21812;55.536;37.664;2023-05-10T00:12:23;19.48;;;11.85;;
35693;SDS011;21812;55.536;37.664;2023-05-10T00:14:49;18.30;;;8.45;;
35693;SDS011;21812;55.536;37.664;2023-05-10T00:17:15;13.35;;;7.35;;
35693;SDS011;21812;55.536;37.664;2023-05-10T00:19:40;11.25;;;7.50;;
35693;SDS011;21812;55.536;37.664;2023-05-10T00:22:06;14.60;;;6.80;;
35693;SDS011;21812;55.536;37.664;2023-05-10T00:24:32;15.93;;;9.13;;
35693;SDS011;21812;55.536;37.664;2023-05-10T00:26:57;16.45;;;8.63;;
35693;SDS011;21812;55.536;37.664;2023-05-10T00:29:23;15.38;;;8.95;;
35693;SDS011;21812;55.536;37.664;2023-05-10T00:31:49;14.85;;;8.80;;
35693;SDS011;21812;55.536;37.664;2023-05-10T00:34:15;16.65;;;9.00;;
35693;SDS011;21812;55.536;37.664;2023-05-10T00:36:40;16.40;;;8.25;;
35693;SDS011;21812;55.536;37.664;2023-05-10T00:39:06;16.20;;;8.27;;
35693;SDS011;21812;55.536;37.664;2023-05-10T00:41:33;18.02;;;8.85;;
35693;SDS011;21812;55.536;37.664;2023-05-10T00:43:59;10.48;;;6.68;;
35693;SDS011;21812;55.536;37.664;2023-05-10T00:46:27;13.85;;;7.22;;
35693;SDS011;21812;55.536;37.664;2023-05-10T00:48:53;14.40;;;8.15;;
35693;SDS011;21812;55.536;37.664;2023-05-10T00:51:19;12.30;;;7.68;;
35693;SDS011;21812;55.536;37.664;2023-05-10T00:53:45;14.65;;;8.45;;
35693;SDS011;21812;55.536;37.664;2023-05-10T00:56:11;13.13;;;7.55;;
35693;SDS011;21812;55.536;37.664;2023-05-10T00:58:39;15.77;;;8.68;;
35693;SDS011;21812;55.536;37.664;2023-05-10T01:01:05;13.82;;;7.40;;
35693;SDS011;21812;55.536;37.664;2023-05-10T01:03:32;15.90;;;8.05;;
35693;SDS011;21812;55.536;37.664;2023-05-10T01:05:58;11.57;;;6.93;;
35693;SDS011;21812;55.536;37.664;2023-05-10T01:08:24;12.88;;;7.68;;
35693;SDS011;21812;55.536;37.664;2023-05-10T01:10:51;18.45;;;8.80;;
35693;SDS011;21812;55.536;37.664;2023-05-10T01:13:18;15.77;;;7.35;;
35693;SDS011;21812;55.536;37.664;2023-05-10T01:16:08;23.92;;;8.52;;
35693;SDS011;21812;55.536;37.664;2023-05-10T01:18:35;14.10;;;8.23;;
35693;SDS011;21812;55.536;37.664;2023-05-10T01:31:58;13.40;;;7.90;;
35693;SDS011;21812;55.536;37.664;2023-05-10T01:34:56;11.13;;;6.40;;
35693;SDS011;21812;55.536;37.664;2023-05-10T01:41:02;11.40;;;6.78;;
35693;SDS011;21812;55.536;37.664;2023-05-10T01:43:47;18.10;;;7.45;;
35693;SDS011;21812;55.536;37.664;2023-05-10T01:46:33;12.27;;;6.85;;
35693;SDS011;21812;55.536;37.664;2023-05-10T01:49:02;9.57;;;5.05;;
35693;SDS011;21812;55.536;37.664;2023-05-10T01:51:36;9.48;;;5.20;;
35693;SDS011;21812;55.536;37.664;2023-05-10T01:54:10;10.77;;;5.47;;
35693;SDS011;21812;55.536;37.664;2023-05-10T01:56:38;11.98;;;5.97;;
35693;SDS011;21812;55.536;37.664;2023-05-10T01:59:11;14.13;;;6.55;;
35693;SDS011;21812;55.536;37.664;2023-05-10T02:01:40;9.80;;;6.38;;
35693;SDS011;21812;55.536;37.664;2023-05-10T02:04:08;9.38;;;6.03;;
35693;SDS011;21812;55.536;37.664;2023-05-10T02:06:36;21.40;;;7.60;;
35693;SDS011;21812;55.536;37.664;2023-05-10T02:09:04;14.77;;;6.85;;
35693;SDS011;21812;55.536;37.664;2023-05-10T02:11:31;15.55;;;6.85;;
35693;SDS011;21812;55.536;37.664;2023-05-10T02:13:58;12.90;;;6.68;;
35693;SDS011;21812;55.536;37.664;2023-05-10T02:16:29;17.60;;;8.52;;
35693;SDS011;21812;55.536;37.664;2023-05-10T02:18:56;9.43;;;6.50;;
35693;SDS011;21812;55.536;37.664;2023-05-10T02:21:25;8.77;;;5.50;;
35693;SDS011;21812;55.536;37.664;2023-05-10T02:23:52;11.13;;;5.45;;
35693;SDS011;21812;55.536;37.664;2023-05-10T02:26:20;9.38;;;5.22;;
35693;SDS011;21812;55.536;37.664;2023-05-10T02:28:49;9.77;;;6.25;;
35693;SDS011;21812;55.536;37.664;2023-05-10T02:31:15;10.02;;;6.07;;
35693;SDS011;21812;55.536;37.664;2023-05-10T02:33:42;10.75;;;7.00;;
35693;SDS011;21812;55.536;37.664;2023-05-10T02:36:08;13.85;;;6.15;;
35693;SDS011;21812;55.536;37.664;2023-05-10T02:38:36;8.40;;;5.10;;
35693;SDS011;21812;55.536;37.664;2023-05-10T02:41:02;8.93;;;6.10;;
35693;SDS011;21812;55.536;37.664;2023-05-10T02:43:30;7.97;;;5.53;;
35693;SDS011;21812;55.536;37.664;2023-05-10T02:45:58;12.38;;;5.35;;
35693;SDS011;21812;55.536;37.664;2023-05-10T02:48:24;6.72;;;4.28;;
35693;SDS011;21812;55.536;37.664;2023-05-10T02:50:50;11.50;;;6.15;;
35693;SDS011;21812;55.536;37.664;2023-05-10T02:53:23;10.85;;;5.68;;
35693;SDS011;21812;55.536;37.664;2023-05-10T02:55:57;10.00;;;4.30;;
35693;SDS011;21812;55.536;37.664;2023-05-10T02:58:26;7.97;;;5.13;;
35693;SDS011;21812;55.536;37.664;2023-05-10T03:00:51;12.10;;;5.22;;
35693;SDS011;21812;55.536;37.664;2023-05-10T03:03:18;13.40;;;6.13;;
35693;SDS011;21812;55.536;37.664;2023-05-10T03:05:47;12.55;;;7.60;;
35693;SDS011;21812;55.536;37.664;2023-05-10T03:08:12;19.20;;;6.63;;
35693;SDS011;21812;55.536;37.664;2023-05-10T03:10:41;26.00;;;9.23;;
35693;SDS011;21812;55.536;37.664;2023-05-10T03:13:32;10.75;;;6.00;;
35693;SDS011;21812;55.536;37.664;2023-05-10T03:16:07;11.27;;;4.68;;
35693;SDS011;21812;55.536;37.664;2023-05-10T03:18:50;11.85;;;5.53;;
35693;SDS011;21812;55.536;37.664;2023-05-10T03:21:22;19.10;;;7.43;;
35693;SDS011;21812;55.536;37.664;2023-05-10T03:23:59;15.13;;;6.43;;
35693;SDS011;21812;55.536;37.664;2023-05-10T03:26:30;9.82;;;6.05;;
35693;SDS011;21812;55.536;37.664;2023-05-10T03:29:06;12.77;;;7.22;;
35693;SDS011;21812;55.536;37.664;2023-05-10T03:31:32;15.43;;;6.45;;
35693;SDS011;21812;55.536;37.664;2023-05-10T03:33:59;10.70;;;6.50;;
35693;SDS011;21812;55.536;37.664;2023-05-10T03:36:26;15.43;;;5.70;;
35693;SDS011;21812;55.536;37.664;2023-05-10T03:38:52;18.98;;;6.57;;
35693;SDS011;21812;55.536;37.664;2023-05-10T03:41:18;10.10;;;6.50;;
35693;SDS011;21812;55.536;37.664;2023-05-10T03:43:43;13.80;;;6.68;;
35693;SDS011;21812;55.536;37.664;2023-05-10T03:46:09;15.32;;;6.47;;
35693;SDS011;21812;55.536;37.664;2023-05-10T03:48:35;12.15;;;6.35;;
35693;SDS011;21812;55.536;37.664;2023-05-10T03:51:00;11.85;;;6.60;;
35693;SDS011;21812;55.536;37.664;2023-05-10T03:53:26;11.23;;;6.07;;
35693;SDS011;21812;55.536;37.664;2023-05-10T03:55:52;15.00;;;6.90;;
35693;SDS011;21812;55.536;37.664;2023-05-10T03:58:18;16.75;;;7.40;;
35693;SDS011;21812;55.536;37.664;2023-05-10T04:00:44;14.63;;;7.22;;
35693;SDS011;21812;55.536;37.664;2023-05-10T04:03:11;15.98;;;8.13;;
35693;SDS011;21812;55.536;37.664;2023-05-10T04:05:37;13.82;;;9.95;;
35693;SDS011;21812;55.536;37.664;2023-05-10T04:08:03;21.75;;;12.05;;
35693;SDS011;21812;55.536;37.664;2023-05-10T04:10:30;19.60;;;12.07;;
35693;SDS011;21812;55.536;37.664;2023-05-10T04:12:55;21.92;;;10.25;;
35693;SDS011;21812;55.536;37.664;2023-05-10T04:15:21;22.15;;;11.23;;
35693;SDS011;21812;55.536;37.664;2023-05-10T04:17:47;21.77;;;8.82;;
35693;SDS011;21812;55.536;37.664;2023-05-10T04:20:13;15.73;;;8.60;;
35693;SDS011;21812;55.536;37.664;2023-05-10T04:22:39;13.50;;;7.45;;
35693;SDS011;21812;55.536;37.664;2023-05-10T04:25:06;16.25;;;7.63;;
35693;SDS011;21812;55.536;37.664;2023-05-10T04:27:32;14.48;;;6.78;;
35693;SDS011;21812;55.536;37.664;2023-05-10T04:29:58;10.25;;;5.95;;
35693;SDS011;21812;55.536;37.664;2023-05-10T04:32:23;13.77;;;6.28;;
35693;SDS011;21812;55.536;37.664;2023-05-10T04:34:49;14.30;;;6.90;;
35693;SDS011;21812;55.536;37.664;2023-05-10T04:37:16;20.13;;;6.65;;
35693;SDS011;21812;55.536;37.664;2023-05-10T04:39:43;12.30;;;6.00;;
35693;SDS011;21812;55.536;37.664;2023-05-10T04:42:09;12.63;;;6.13;;
35693;SDS011;21812;55.536;37.664;2023-05-10T04:44:34;18.70;;;6.97;;
35693;SDS011;21812;55.536;37.664;2023-05-10T04:47:01;17.23;;;5.60;;
35693;SDS011;21812;55.536;37.664;2023-05-10T04:49:27;13.13;;;5.32;;
35693;SDS011;21812;55.536;37.664;2023-05-10T04:51:53;16.90;;;6.03;;
35693;SDS011;21812;55.536;37.664;2023-05-10T04:54:19;10.52;;;5.78;;
35693;SDS011;21812;55.536;37.664;2023-05-10T04:56:45;13.30;;;6.07;;
35693;SDS011;21812;55.536;37.664;2023-05-10T04:59:10;12.30;;;5.55;;
35693;SDS011;21812;55.536;37.664;2023-05-10T05:01:36;9.77;;;4.93;;
35693;SDS011;21812;55.536;37.664;2023-05-10T05:04:02;10.93;;;5.88;;
35693;SDS011;21812;55.536;37.664;2023-05-10T05:06:28;10.13;;;5.45;;
35693;SDS011;21812;55.536;37.664;2023-05-10T05:08:53;12.75;;;6.43;;
35693;SDS011;21812;55.536;37.664;2023-05-10T05:11:19;12.38;;;5.25;;
35693;SDS011;21812;55.536;37.664;2023-05-10T05:13:46;13.45;;;6.65;;
35693;SDS011;21812;55.536;37.664;2023-05-10T05:16:12;10.65;;;5.78;;
35693;SDS011;21812;55.536;37.664;2023-05-10T05:18:38;8.60;;;6.40;;
35693;SDS011;21812;55.536;37.664;2023-05-10T05:21:13;14.15;;;5.38;;
35693;SDS011;21812;55.536;37.664;2023-05-10T05:23:42;11.95;;;5.28;;
35693;SDS011;21812;55.536;37.664;2023-05-10T05:26:08;16.00;;;4.95;;
35693;SDS011;21812;55.536;37.664;2023-05-10T05:28:34;6.75;;;3.53;;
35693;SDS011;21812;55.536;37.664;2023-05-10T05:31:03;9.18;;;4.15;;
35693;SDS011;21812;55.536;37.664;2023-05-10T05:33:35;11.15;;;4.10;;
35693;SDS011;21812;55.536;37.664;2023-05-10T05:36:02;7.03;;;3.50;;
35693;SDS011;21812;55.536;37.664;2023-05-10T05:38:29;7.32;;;3.53;;
35693;SDS011;21812;55.536;37.664;2023-05-10T05:40:56;10.30;;;3.83;;
35693;SDS011;21812;55.536;37.664;2023-05-10T05:43:23;6.10;;;3.67;;
35693;SDS011;21812;55.536;37.664;2023-05-10T05:45:49;4.35;;;2.97;;
35693;SDS011;21812;55.536;37.664;2023-05-10T05:48:14;7.68;;;4.22;;
35693;SDS011;21812;55.536;37.664;2023-05-10T05:50:40;9.10;;;4.68;;
35693;SDS011;21812;55.536;37.664;2023-05-10T05:53:06;8.30;;;4.47;;
35693;SDS011;21812;55.536;37.664;2023-05-10T05:55:32;6.78;;;3.25;;
35693;SDS011;21812;55.536;37.664;2023-05-10T05:57:58;5.15;;;2.50;;
35693;SDS011;21812;55.536;37.664;2023-05-10T06:00:24;9.50;;;2.65;;
35693;SDS011;21812;55.536;37.664;2023-05-10T06:02:50;3.20;;;2.00;;
35693;SDS011;21812;55.536;37.664;2023-05-10T06:05:15;4.97;;;2.20;;
35693;SDS011;21812;55.536;37.664;2023-05-10T06:07:41;3.38;;;2.42;;
35693;SDS011;21812;55.536;37.664;2023-05-10T06:10:07;3.47;;;2.05;;
35693;SDS011;21812;55.536;37.664;2023-05-10T06:12:34;4.63;;;1.73;;
35693;SDS011;21812;55.536;37.664;2023-05-10T06:15:00;6.13;;;1.80;;
35693;SDS011;21812;55.536;37.664;2023-05-10T06:17:26;5.18;;;1.95;;
35693;SDS011;21812;55.536;37.664;2023-05-10T06:19:51;6.15;;;1.77;;
35693;SDS011;21812;55.536;37.664;2023-05-10T06:22:17;9.98;;;2.03;;
35693;SDS011;21812;55.536;37.664;2023-05-10T06:24:43;2.20;;;1.40;;
35693;SDS011;21812;55.536;37.664;2023-05-10T06:27:08;5.15;;;1.60;;
35693;SDS011;21812;55.536;37.664;2023-05-10T06:29:34;3.10;;;1.35;;
35693;SDS011;21812;55.536;37.664;2023-05-10T06:32:00;5.10;;;1.25;;
35693;SDS011;21812;55.536;37.664;2023-05-10T06:34:26;6.97;;;1.50;;
35693;SDS011;21812;55.536;37.664;2023-05-10T06:36:52;9.90;;;2.20;;
35693;SDS011;21812;55.536;37.664;2023-05-10T06:39:18;2.78;;;1.10;;
35693;SDS011;21812;55.536;37.664;2023-05-10T06:41:43;1.95;;;1.40;;
35693;SDS011;21812;55.536;37.664;2023-05-10T06:44:09;2.40;;;1.77;;
35693;SDS011;21812;55.536;37.664;2023-05-10T06:46:35;5.70;;;1.40;;
35693;SDS011;21812;55.536;37.664;2023-05-10T06:49:01;8.00;;;1.63;;
35693;SDS011;21812;55.536;37.664;2023-05-10T06:51:27;1.98;;;1.50;;
35693;SDS011;21812;55.536;37.664;2023-05-10T06:53:53;6.13;;;1.60;;
35693;SDS011;21812;55.536;37.664;2023-05-10T06:56:19;10.77;;;2.63;;
35693;SDS011;21812;55.536;37.664;2023-05-10T06:58:47;6.13;;;1.88;;
35693;SDS011;21812;55.536;37.664;2023-05-10T07:01:13;6.93;;;1.48;;
35693;SDS011;21812;55.536;37.664;2023-05-10T07:03:39;4.75;;;1.23;;
35693;SDS011;21812;55.536;37.664;2023-05-10T07:06:04;7.10;;;1.40;;
35693;SDS011;21812;55.536;37.664;2023-05-10T07:08:32;3.13;;;1.50;;
35693;SDS011;21812;55.536;37.664;2023-05-10T07:11:04;6.97;;;1.73;;
35693;SDS011;21812;55.536;37.664;2023-05-10T07:13:32;3.65;;;1.65;;
35693;SDS011;21812;55.536;37.664;2023-05-10T07:15:59;4.55;;;1.17;;
35693;SDS011;21812;55.536;37.664;2023-05-10T07:18:25;3.72;;;1.52;;
35693;SDS011;21812;55.536;37.664;2023-05-10T07:20:51;2.45;;;1.27;;
35693;SDS011;21812;55.536;37.664;2023-05-10T07:23:17;4.47;;;1.05;;
35693;SDS011;21812;55.536;37.664;2023-05-10T07:25:47;4.00;;;1.30;;
35693;SDS011;21812;55.536;37.664;2023-05-10T07:28:14;7.68;;;1.35;;
35693;SDS011;21812;55.536;37.664;2023-05-10T07:30:40;3.90;;;1.20;;
35693;SDS011;21812;55.536;37.664;2023-05-10T07:33:06;2.10;;;1.67;;
35693;SDS011;21812;55.536;37.664;2023-05-10T07:35:33;2.92;;;1.55;;
35693;SDS011;21812;55.536;37.664;2023-05-10T07:37:59;4.75;;;1.83;;
35693;SDS011;21812;55.536;37.664;2023-05-10T07:40:25;3.97;;;1.80;;
35693;SDS011;21812;55.536;37.664;2023-05-10T07:42:51;5.57;;;1.70;;
35693;SDS011;21812;55.536;37.664;2023-05-10T07:45:17;3.65;;;2.08;;
35693;SDS011;21812;55.536;37.664;2023-05-10T07:47:43;6.38;;;1.50;;
35693;SDS011;21812;55.536;37.664;2023-05-10T07:50:08;2.03;;;1.20;;
35693;SDS011;21812;55.536;37.664;2023-05-10T07:52:34;5.88;;;1.33;;
35693;SDS011;21812;55.536;37.664;2023-05-10T07:55:00;3.92;;;1.60;;
35693;SDS011;21812;55.536;37.664;2023-05-10T07:57:25;1.30;;;0.70;;
35693;SDS011;21812;55.536;37.664;2023-05-10T07:59:51;5.20;;;2.00;;
35693;SDS011;21812;55.536;37.664;2023-05-10T08:02:17;2.70;;;1.40;;
35693;SDS011;21812;55.536;37.664;2023-05-10T08:04:42;2.10;;;1.33;;
35693;SDS011;21812;55.536;37.664;2023-05-10T08:07:08;2.17;;;1.08;;
35693;SDS011;21812;55.536;37.664;2023-05-10T08:09:34;2.35;;;1.20;;
35693;SDS011;21812;55.536;37.664;2023-05-10T08:11:59;3.00;;;1.35;;
35693;SDS011;21812;55.536;37.664;2023-05-10T08:14:26;2.15;;;1.15;;
35693;SDS011;21812;55.536;37.664;2023-05-10T08:16:53;2.92;;;0.98;;
35693;SDS011;21812;55.536;37.664;2023-05-10T08:19:19;3.22;;;1.20;;
35693;SDS011;21812;55.536;37.664;2023-05-10T08:21:46;4.13;;;1.40;;
35693;SDS011;21812;55.536;37.664;2023-05-10T08:24:13;2.28;;;1.10;;
35693;SDS011;21812;55.536;37.664;2023-05-10T08:26:38;2.80;;;1.15;;
35693;SDS011;21812;55.536;37.664;2023-05-10T08:29:04;3.75;;;1.40;;
35693;SDS011;21812;55.536;37.664;2023-05-10T08:31:30;3.15;;;1.27;;
35693;SDS011;21812;55.536;37.664;2023-05-10T08:33:55;2.17;;;0.75;;
35693;SDS011;21812;55.536;37.664;2023-05-10T08:36:21;2.13;;;0.95;;
35693;SDS011;21812;55.536;37.664;2023-05-10T08:38:50;4.20;;;1.42;;
35693;SDS011;21812;55.536;37.664;2023-05-10T08:41:19;4.28;;;1.27;;
35693;SDS011;21812;55.536;37.664;2023-05-10T08:43:46;5.05;;;1.00;;
35693;SDS011;21812;55.536;37.664;2023-05-10T08:46:15;3.88;;;1.15;;
35693;SDS011;21812;55.536;37.664;2023-05-10T08:48:46;3.38;;;1.13;;
35693;SDS011;21812;55.536;37.664;2023-05-10T08:51:13;2.33;;;0.90;;
35693;SDS011;21812;55.536;37.664;2023-05-10T08:53:40;2.40;;;1.33;;
35693;SDS011;21812;55.536;37.664;2023-05-10T08:56:06;2.05;;;1.00;;
35693;SDS011;21812;55.536;37.664;2023-05-10T08:58:32;4.80;;;1.60;;
35693;SDS011;21812;55.536;37.664;2023-05-10T09:00:58;3.42;;;1.17;;
35693;SDS011;21812;55.536;37.664;2023-05-10T09:03:25;3.08;;;1.27;;
35693;SDS011;21812;55.536;37.664;2023-05-10T09:05:50;3.92;;;1.10;;
35693;SDS011;21812;55.536;37.664;2023-05-10T09:08:17;4.88;;;1.10;;
35693;SDS011;21812;55.536;37.664;2023-05-10T09:10:43;5.57;;;1.40;;
35693;SDS011;21812;55.536;37.664;2023-05-10T09:13:10;3.20;;;0.85;;
35693;SDS011;21812;55.536;37.664;2023-05-10T09:15:37;1.98;;;0.80;;
35693;SDS011;21812;55.536;37.664;2023-05-10T09:18:03;1.80;;;1.10;;
35693;SDS011;21812;55.536;37.664;2023-05-10T09:20:29;2.25;;;1.05;;
35693;SDS011;21812;55.536;37.664;2023-05-10T09:22:56;4.20;;;1.05;;
35693;SDS011;21812;55.536;37.664;2023-05-10T09:25:22;3.08;;;1.23;;
35693;SDS011;21812;55.536;37.664;2023-05-10T09:27:47;2.05;;;1.10;;
35693;SDS011;21812;55.536;37.664;2023-05-10T09:30:17;3.03;;;1.33;;
35693;SDS011;21812;55.536;37.664;2023-05-10T09:32:50;1.80;;;0.90;;
35693;SDS011;21812;55.536;37.664;2023-05-10T09:35:17;2.35;;;0.70;;
35693;SDS011;21812;55.536;37.664;2023-05-10T09:37:47;3.35;;;1.55;;
35693;SDS011;21812;55.536;37.664;2023-05-10T09:40:21;4.95;;;1.15;;
35693;SDS011;21812;55.536;37.664;2023-05-10T09:45:19;2.67;;;0.95;;
35693;SDS011;21812;55.536;37.664;2023-05-10T09:47:46;2.20;;;1.00;;
35693;SDS011;21812;55.536;37.664;2023-05-10T09:50:12;5.15;;;1.08;;
35693;SDS011;21812;55.536;37.664;2023-05-10T09:52:54;3.03;;;1.35;;
35693;SDS011;21812;55.536;37.664;2023-05-10T09:55:40;3.65;;;1.20;;
35693;SDS011;21812;55.536;37.664;2023-05-10T10:00:42;4.07;;;1.25;;
35693;SDS011;21812;55.536;37.664;2023-05-10T10:03:19;4.03;;;1.00;;
35693;SDS011;21812;55.536;37.664;2023-05-10T10:05:46;4.70;;;1.60;;
35693;SDS011;21812;55.536;37.664;2023-05-10T10:08:13;2.38;;;1.33;;
35693;SDS011;21812;55.536;37.664;2023-05-10T10:10:40;1.40;;;1.17;;
35693;SDS011;21812;55.536;37.664;2023-05-10T10:13:07;3.88;;;1.70;;
35693;SDS011;21812;55.536;37.664;2023-05-10T10:15:34;3.55;;;1.42;;
35693;SDS011;21812;55.536;37.664;2023-05-10T10:18:00;2.42;;;1.50;;
35693;SDS011;21812;55.536;37.664;2023-05-10T10:20:26;4.50;;;2.50;;
35693;SDS011;21812;55.536;37.664;2023-05-10T10:22:53;4.88;;;1.60;;
35693;SDS011;21812;55.536;37.664;2023-05-10T10:25:19;3.00;;;1.35;;
35693;SDS011;21812;55.536;37.664;2023-05-10T10:30:25;3.47;;;1.75;;
35693;SDS011;21812;55.536;37.664;2023-05-10T10:36:09;2.00;;;1.45;;
35693;SDS011;21812;55.536;37.664;2023-05-10T10:38:53;5.22;;;1.80;;
35693;SDS011;21812;55.536;37.664;2023-05-10T10:52:42;6.75;;;1.50;;
35693;SDS011;21812;55.536;37.664;2023-05-10T10:55:15;6.20;;;1.80;;
35693;SDS011;21812;55.536;37.664;2023-05-10T11:00:36;2.50;;;1.70;;
35693;SDS011;21812;55.536;37.664;2023-05-10T11:03:09;2.35;;;1.27;;
35693;SDS011;21812;55.536;37.664;2023-05-10T11:05:43;5.65;;;2.88;;
35693;SDS011;21812;55.536;37.664;2023-05-10T11:13:27;3.45;;;1.77;;
35693;SDS011;21812;55.536;37.664;2023-05-10T11:15:55;2.50;;;2.00;;
35693;SDS011;21812;55.536;37.664;2023-05-10T11:18:28;5.55;;;2.00;;
35693;SDS011;21812;55.536;37.664;2023-05-10T11:21:01;3.40;;;1.95;;
35693;SDS011;21812;55.536;37.664;2023-05-10T11:23:30;3.42;;;1.77;;
35693;SDS011;21812;55.536;37.664;2023-05-10T11:25:58;5.00;;;1.88;;
35693;SDS011;21812;55.536;37.664;2023-05-10T11:28:25;4.00;;;1.83;;
35693;SDS011;21812;55.536;37.664;2023-05-10T11:30:52;4.72;;;2.08;;
35693;SDS011;21812;55.536;37.664;2023-05-10T11:33:18;3.20;;;2.28;;
35693;SDS011;21812;55.536;37.664;2023-05-10T11:35:45;3.97;;;2.20;;
35693;SDS011;21812;55.536;37.664;2023-05-10T11:38:11;4.90;;;2.15;;
35693;SDS011;21812;55.536;37.664;2023-05-10T11:40:38;5.45;;;2.40;;
35693;SDS011;21812;55.536;37.664;2023-05-10T11:43:04;4.13;;;2.05;;
35693;SDS011;21812;55.536;37.664;2023-05-10T11:45:34;4.55;;;2.28;;
35693;SDS011;21812;55.536;37.664;2023-05-10T11:48:00;4.20;;;2.13;;
35693;SDS011;21812;55.536;37.664;2023-05-10T11:50:27;3.33;;;1.63;;
35693;SDS011;21812;55.536;37.664;2023-05-10T11:52:53;5.50;;;1.95;;
35693;SDS011;21812;55.536;37.664;2023-05-10T11:55:20;3.95;;;1.70;;
35693;SDS011;21812;55.536;37.664;2023-05-10T11:57:46;3.83;;;2.47;;
35693;SDS011;21812;55.536;37.664;2023-05-10T12:00:12;7.00;;;3.05;;
35693;SDS011;21812;55.536;37.664;2023-05-10T12:02:41;5.50;;;2.20;;
35693;SDS011;21812;55.536;37.664;2023-05-10T12:05:07;3.50;;;1.85;;
35693;SDS011;21812;55.536;37.664;2023-05-10T12:07:34;3.85;;;1.88;;
35693;SDS011;21812;55.536;37.664;2023-05-10T12:10:07;5.35;;;2.75;;
35693;SDS011;21812;55.536;37.664;2023-05-10T12:12:36;5.57;;;2.25;;
35693;SDS011;21812;55.536;37.664;2023-05-10T12:15:11;4.00;;;2.30;;
35693;SDS011;21812;55.536;37.664;2023-05-10T12:17:38;4.53;;;2.55;;
35693;SDS011;21812;55.536;37.664;2023-05-10T12:20:18;3.72;;;2.22;;
35693;SDS011;21812;55.536;37.664;2023-05-10T12:25:20;5.38;;;2.08;;
35693;SDS011;21812;55.536;37.664;2023-05-10T12:27:57;3.25;;;1.90;;
35693;SDS011;21812;55.536;37.664;2023-05-10T12:30:26;3.05;;;1.88;;
35693;SDS011;21812;55.536;37.664;2023-05-10T12:32:54;2.80;;;2.22;;
35693;SDS011;21812;55.536;37.664;2023-05-10T12:35:32;12.63;;;3.17;;
35693;SDS011;21812;55.536;37.664;2023-05-10T12:38:24;3.22;;;1.90;;
35693;SDS011;21812;55.536;37.664;2023-05-10T12:41:08;5.45;;;2.08;;
35693;SDS011;21812;55.536;37.664;2023-05-10T12:43:36;5.85;;;2.55;;
35693;SDS011;21812;55.536;37.664;2023-05-10T12:48:32;3.78;;;2.28;;
35693;SDS011;21812;55.536;37.664;2023-05-10T12:50:59;5.28;;;2.03;;
35693;SDS011;21812;55.536;37.664;2023-05-10T12:53:26;3.55;;;2.17;;
35693;SDS011;21812;55.536;37.664;2023-05-10T12:55:52;2.85;;;2.00;;
35693;SDS011;21812;55.536;37.664;2023-05-10T12:58:18;2.50;;;2.17;;
35693;SDS011;21812;55.536;37.664;2023-05-10T13:00:44;5.03;;;1.55;;
35693;SDS011;21812;55.536;37.664;2023-05-10T13:03:10;3.42;;;1.98;;
35693;SDS011;21812;55.536;37.664;2023-05-10T13:05:35;4.30;;;1.95;;
35693;SDS011;21812;55.536;37.664;2023-05-10T13:08:01;3.83;;;1.80;;
35693;SDS011;21812;55.536;37.664;2023-05-10T13:10:28;3.72;;;1.83;;
35693;SDS011;21812;55.536;37.664;2023-05-10T13:12:56;4.93;;;2.13;;
35693;SDS011;21812;55.536;37.664;2023-05-10T13:15:23;8.05;;;2.45;;
35693;SDS011;21812;55.536;37.664;2023-05-10T13:17:49;3.65;;;2.00;;
35693;SDS011;21812;55.536;37.664;2023-05-10T13:20:15;6.55;;;1.60;;
35693;SDS011;21812;55.536;37.664;2023-05-10T13:22:43;5.65;;;1.63;;
35693;SDS011;21812;55.536;37.664;2023-05-10T13:25:10;3.67;;;2.25;;
35693;SDS011;21812;55.536;37.664;2023-05-10T13:27:36;6.28;;;2.85;;
35693;SDS011;21812;55.536;37.664;2023-05-10T13:30:03;2.67;;;2.13;;
35693;SDS011;21812;55.536;37.664;2023-05-10T13:32:32;4.47;;;1.88;;
35693;SDS011;21812;55.536;37.664;2023-05-10T13:34:59;3.90;;;1.90;;
35693;SDS011;21812;55.536;37.664;2023-05-10T13:37:25;12.13;;;2.85;;
35693;SDS011;21812;55.536;37.664;2023-05-10T13:39:51;8.48;;;2.15;;
35693;SDS011;21812;55.536;37.664;2023-05-10T13:42:17;5.15;;;2.00;;
35693;SDS011;21812;55.536;37.664;2023-05-10T13:44:43;5.45;;;2.95;;
35693;SDS011;21812;55.536;37.664;2023-05-10T13:47:08;5.82;;;2.63;;
35693;SDS011;21812;55.536;37.664;2023-05-10T13:49:35;5.82;;;3.25;;
35693;SDS011;21812;55.536;37.664;2023-05-10T13:52:02;7.28;;;4.00;;
35693;SDS011;21812;55.536;37.664;2023-05-10T13:54:38;7.07;;;3.45;;
35693;SDS011;21812;55.536;37.664;2023-05-10T13:57:04;7.68;;;4.07;;
35693;SDS011;21812;55.536;37.664;2023-05-10T13:59:30;6.57;;;2.90;;
35693;SDS011;21812;55.536;37.664;2023-05-10T14:01:59;6.25;;;2.63;;
35693;SDS011;21812;55.536;37.664;2023-05-10T14:04:28;5.47;;;2.95;;
35693;SDS011;21812;55.536;37.664;2023-05-10T14:06:54;4.60;;;3.40;;
35693;SDS011;21812;55.536;37.664;2023-05-10T14:09:20;7.07;;;2.63;;
35693;SDS011;21812;55.536;37.664;2023-05-10T14:11:46;4.63;;;2.10;;
35693;SDS011;21812;55.536;37.664;2023-05-10T14:14:12;3.22;;;2.22;;
35693;SDS011;21812;55.536;37.664;2023-05-10T14:16:45;6.65;;;1.88;;
35693;SDS011;21812;55.536;37.664;2023-05-10T14:19:11;7.43;;;2.10;;
35693;SDS011;21812;55.536;37.664;2023-05-10T14:21:37;3.42;;;1.67;;
35693;SDS011;21812;55.536;37.664;2023-05-10T14:24:03;5.35;;;1.50;;
35693;SDS011;21812;55.536;37.664;2023-05-10T14:26:29;2.35;;;1.10;;
35693;SDS011;21812;55.536;37.664;2023-05-10T14:28:55;2.22;;;1.25;;
35693;SDS011;21812;55.536;37.664;2023-05-10T14:31:21;2.47;;;1.10;;
35693;SDS011;21812;55.536;37.664;2023-05-10T14:33:48;3.47;;;1.50;;
35693;SDS011;21812;55.536;37.664;2023-05-10T14:36:14;4.03;;;1.65;;
35693;SDS011;21812;55.536;37.664;2023-05-10T14:38:40;3.80;;;1.70;;
35693;SDS011;21812;55.536;37.664;2023-05-10T14:41:06;5.97;;;2.15;;
35693;SDS011;21812;55.536;37.664;2023-05-10T14:43:32;6.53;;;1.88;;
35693;SDS011;21812;55.536;37.664;2023-05-10T14:45:58;5.03;;;1.80;;
35693;SDS011;21812;55.536;37.664;2023-05-10T14:48:23;2.38;;;1.60;;
35693;SDS011;21812;55.536;37.664;2023-05-10T14:50:49;2.97;;;1.70;;
35693;SDS011;21812;55.536;37.664;2023-05-10T14:53:15;5.43;;;1.63;;
35693;SDS011;21812;55.536;37.664;2023-05-10T14:55:41;6.40;;;1.80;;
35693;SDS011;21812;55.536;37.664;2023-05-10T14:58:07;7.93;;;1.83;;
35693;SDS011;21812;55.536;37.664;2023-05-10T15:00:33;5.88;;;1.70;;
35693;SDS011;21812;55.536;37.664;2023-05-10T15:02:59;2.78;;;1.27;;
35693;SDS011;21812;55.536;37.664;2023-05-10T15:05:24;4.88;;;1.50;;
35693;SDS011;21812;55.536;37.664;2023-05-10T15:07:50;2.85;;;1.27;;
35693;SDS011;21812;55.536;37.664;2023-05-10T15:10:16;3.35;;;1.60;;
35693;SDS011;21812;55.536;37.664;2023-05-10T15:12:43;3.15;;;1.63;;
35693;SDS011;21812;55.536;37.664;2023-05-10T15:15:08;9.70;;;2.10;;
35693;SDS011;21812;55.536;37.664;2023-05-10T15:17:34;7.00;;;1.60;;
35693;SDS011;21812;55.536;37.664;2023-05-10T15:20:00;8.63;;;2.33;;
35693;SDS011;21812;55.536;37.664;2023-05-10T15:22:30;9.95;;;1.75;;